• Join FlightAware (Why Join?)
  • Login
  • US Flag 
10:05AM EDT


 

Airport Tracker/Info


-or-


 

Live Flight TrackerFlight Track Log ✈ N818GM ✈ 23-Aug-2013 ✈ KFMY - KAPF

Flight Track Log - Related Links

Times and Time Zones

All times are in EDT time to prevent confusion due to time zone crossing. See the N818GM flight status page for this flight to view local times or setup timezone preferences in your user account.

Time Position Orientation Groundspeed Altitude Reporting Facility
EDT Latitude Longitude Course Direction KTS MPH feet Rate Location/Type
09:31AM 26.4569 -81.8312 169° South  Level FlightAware Approximate
09:32AM 26.4319 -81.8256 169° South  Level FlightAware Approximate
09:33AM 26.4069 -81.8200 169° South  Level FlightAware Approximate
09:34AM 26.3818 -81.8145 169° South  Level FlightAware Approximate
09:35AM 26.3568 -81.8089 169° South  Level FlightAware Approximate
09:36AM 26.3318 -81.8034 169° South  Level FlightAware Approximate
09:37AM 26.3067 -81.7980 170° South  Level FlightAware Approximate
09:38AM 26.2816 -81.7930 170° South  Level FlightAware Approximate
09:39AM 26.2565 -81.7880 170° South  Level FlightAware Approximate
09:40AM 26.2314 -81.7830 170° South  Level FlightAware Approximate
09:41AM 26.2063 -81.7779 170° South  Level FlightAware Approximate
09:42AM 26.1812 -81.7729 170° South  Level FlightAware Approximate
09:43AM 26.1561 -81.7679 170° South  Level FlightAware Approximate
09:44AM 26.1500 -81.7667 170° South  Level FlightAware Approximate
09:45AM 26.1524 -81.7756 170° South  Level Estimated
09:46AM 26.1524 -81.7756 170° South  Level Estimated
09:47AM 26.1524 -81.7756 170° South  Level Estimated
09:48AM 26.1524 -81.7756 170° South  Level Estimated
09:49AM 26.1524 -81.7756 170° South  Level Estimated
09:50AM 26.1524 -81.7756 170° South  Level Estimated
09:51AM 26.1524 -81.7756 170° South  Level Estimated
09:52AM 26.1524 -81.7756 170° South  Level Estimated